createdAt,value
2022-10-13T00:05:01.555Z,101880.75
2022-10-13T00:10:05.088Z,101879.47
2022-10-13T00:15:09.427Z,101873.81
2022-10-13T00:20:13.837Z,101874.84
2022-10-13T00:25:16.713Z,101870.16
2022-10-13T00:30:19.510Z,101854.84
2022-10-13T00:35:23.565Z,101855.72
2022-10-13T00:40:26.350Z,101839.78
2022-10-13T00:45:30.763Z,101832.06
2022-10-13T00:50:38.918Z,101848.97
2022-10-13T00:55:44.732Z,101830.66
2022-10-13T01:00:50.630Z,101818.38
2022-10-13T01:05:58.948Z,101815.50
2022-10-13T01:11:13.352Z,101812.50
2022-10-13T01:16:26.429Z,101819.00
2022-10-13T01:21:37.583Z,101809.06
2022-10-13T01:27:15.882Z,101798.97
2022-10-13T01:32:27.957Z,101794.94
2022-10-13T01:37:34.764Z,101779.78
2022-10-13T01:42:44.296Z,101777.94
2022-10-13T01:47:49.326Z,101784.63
2022-10-13T01:52:53.214Z,101776.00
2022-10-13T01:57:56.347Z,101762.81
2022-10-13T02:03:08.451Z,101763.59
2022-10-13T02:08:18.314Z,101754.19
2022-10-13T02:13:24.977Z,101746.53
2022-10-13T02:18:32.354Z,101748.09
2022-10-13T02:23:35.558Z,101746.03
2022-10-13T02:28:39.220Z,101741.88
2022-10-13T02:33:43.351Z,101745.63
2022-10-13T02:38:46.053Z,101743.53
2022-10-13T02:43:48.773Z,101737.41
2022-10-13T02:48:53.416Z,101736.50
2022-10-13T02:53:56.132Z,101736.50
2022-10-13T02:58:58.830Z,101730.88
2022-10-13T03:04:02.877Z,101733.63
2022-10-13T03:09:05.816Z,101731.00
2022-10-13T03:14:08.505Z,101717.91
2022-10-13T03:19:12.796Z,101715.28
2022-10-13T03:24:15.510Z,101715.94
2022-10-13T03:29:19.192Z,101699.28
2022-10-13T03:34:23.290Z,101701.59
2022-10-13T03:39:26.275Z,101705.53
2022-10-13T03:44:29.108Z,101711.25
2022-10-13T03:49:33.312Z,101687.16
2022-10-13T03:54:36.088Z,101688.88
2022-10-13T03:59:41.121Z,101698.16
2022-10-13T04:04:45.220Z,101690.31
2022-10-13T04:09:47.946Z,101689.91
2022-10-13T04:14:50.684Z,101678.66
2022-10-13T04:19:54.790Z,101679.31
2022-10-13T04:24:57.520Z,101675.25
2022-10-13T04:30:00.305Z,101660.94
2022-10-13T04:35:04.935Z,101662.38
2022-10-13T04:40:08.564Z,101665.63
2022-10-13T04:45:11.825Z,101661.78
2022-10-13T04:50:15.874Z,101663.19
2022-10-13T04:55:18.798Z,101656.84
2022-10-13T05:00:21.771Z,101648.56
2022-10-13T05:05:25.920Z,101647.22
2022-10-13T05:10:32.583Z,101640.41
2022-10-13T05:15:40.025Z,101638.00
2022-10-13T05:20:44.188Z,101628.19
2022-10-13T05:25:46.863Z,101631.41
2022-10-13T05:30:49.542Z,101624.88
2022-10-13T05:35:53.643Z,101616.78
2022-10-13T05:40:56.356Z,101618.13
2022-10-13T05:45:59.429Z,101611.63
2022-10-13T05:51:07.500Z,101619.47
2022-10-13T05:56:15.119Z,101601.16
2022-10-13T06:01:22.717Z,101612.28
2022-10-13T06:06:30.575Z,101620.16
2022-10-13T06:11:34.251Z,101618.66
2022-10-13T06:16:37.564Z,101618.00
2022-10-13T06:21:41.608Z,101619.41
2022-10-13T06:26:44.504Z,101611.00
2022-10-13T06:31:47.780Z,101619.22
2022-10-13T06:36:51.839Z,101614.44
2022-10-13T06:41:55.362Z,101597.38
2022-10-13T06:46:58.067Z,101610.94
2022-10-13T06:52:02.159Z,101608.00
2022-10-13T06:57:06.915Z,101608.56
2022-10-13T07:02:10.242Z,101608.50
2022-10-13T07:07:14.608Z,101611.81
2022-10-13T07:12:18.043Z,101603.63
2022-10-13T07:17:21.399Z,101600.78
2022-10-13T07:22:25.865Z,101597.03
2022-10-13T07:27:29.039Z,101597.81
2022-10-13T07:32:32.432Z,101583.19
2022-10-13T07:37:36.624Z,101585.78
2022-10-13T07:42:39.340Z,101599.94
2022-10-13T07:47:42.034Z,101592.13
2022-10-13T07:52:46.112Z,101584.47
2022-10-13T07:57:48.794Z,101587.97
2022-10-13T08:02:51.823Z,101587.31
2022-10-13T08:07:58.354Z,101588.16
2022-10-13T08:13:01.446Z,101584.66
2022-10-13T08:18:04.160Z,101589.97
2022-10-13T08:23:08.240Z,101583.84
2022-10-13T08:28:18.959Z,101579.50
2022-10-13T08:33:21.997Z,101572.63
2022-10-13T08:38:26.092Z,101568.69
2022-10-13T08:43:29.249Z,101570.00
2022-10-13T08:48:36.208Z,101579.09
2022-10-13T08:53:43.909Z,101569.53
2022-10-13T08:58:47.721Z,101562.69
2022-10-13T09:03:54.396Z,101537.22
2022-10-13T09:09:00.843Z,101558.13
2022-10-13T09:14:06.117Z,101549.34
2022-10-13T09:19:20.923Z,101546.25
2022-10-13T09:24:27.827Z,101545.44
2022-10-13T09:29:30.589Z,101541.72
2022-10-13T09:34:34.350Z,101531.28
2022-10-13T09:39:38.475Z,101531.50
2022-10-13T09:44:41.807Z,101532.78
2022-10-13T09:49:45.069Z,101522.28
2022-10-13T09:54:51.118Z,101504.75
2022-10-13T09:59:59.892Z,101511.13
2022-10-13T10:05:07.560Z,101496.06
2022-10-13T10:10:23.928Z,101489.75
2022-10-13T10:15:34.946Z,101487.91
2022-10-13T10:20:53.901Z,101496.69
2022-10-13T10:26:01.828Z,101489.38
2022-10-13T10:31:13.140Z,101487.44
2022-10-13T10:36:20.598Z,101477.31
2022-10-13T10:41:39.767Z,101459.38
2022-10-13T10:46:47.616Z,101444.66
2022-10-13T10:51:50.966Z,101438.69
2022-10-13T10:56:59.468Z,101439.94
2022-10-13T11:02:17.242Z,101449.13
2022-10-13T11:07:53.198Z,101458.19
2022-10-13T11:13:27.486Z,101458.19
2022-10-13T11:19:09.410Z,101455.00
2022-10-13T11:24:46.804Z,101446.47
2022-10-13T11:29:56.556Z,101454.38
2022-10-13T11:35:01.613Z,101440.19
2022-10-13T11:40:17.554Z,101424.59
2022-10-13T11:45:42.757Z,101418.72
2022-10-13T11:50:54.964Z,101419.91
2022-10-13T11:55:59.230Z,101419.28
2022-10-13T12:01:06.420Z,101416.25
2022-10-13T12:06:33.708Z,101414.84
2022-10-13T12:11:38.795Z,101417.81
2022-10-13T12:16:53.668Z,101403.63
2022-10-13T12:21:58.625Z,101404.78
2022-10-13T12:27:11.820Z,101405.91
2022-10-13T12:32:24.439Z,101398.03
2022-10-13T12:37:30.961Z,101391.09
2022-10-13T12:42:36.974Z,101393.06
2022-10-13T12:47:48.931Z,101390.63
2022-10-13T12:52:52.755Z,101387.19
2022-10-13T12:57:55.903Z,101379.19
2022-10-13T13:03:01.663Z,101375.59
2022-10-13T13:08:05.828Z,101376.00
2022-10-13T13:13:15.955Z,101365.44
2022-10-13T13:18:42.211Z,101360.13
2022-10-13T13:23:51.041Z,101353.13
2022-10-13T13:28:57.941Z,101356.81
2022-10-13T13:34:02.059Z,101347.03
2022-10-13T13:39:05.061Z,101345.22
2022-10-13T13:44:07.861Z,101346.97
2022-10-13T13:49:12.691Z,101352.09
2022-10-13T13:54:15.393Z,101352.06
2022-10-13T13:59:18.100Z,101339.38
2022-10-13T14:04:22.532Z,101339.13
2022-10-13T14:09:25.223Z,101338.94
2022-10-13T14:14:28.057Z,101339.88
2022-10-13T14:19:32.475Z,101341.72
2022-10-13T14:24:35.440Z,101340.03
2022-10-13T14:29:38.357Z,101336.63
2022-10-13T14:34:42.453Z,101325.19
2022-10-13T14:39:45.240Z,101319.00
2022-10-13T14:44:48.085Z,101319.78
2022-10-13T14:49:52.163Z,101324.25
2022-10-13T14:54:54.873Z,101328.72
2022-10-13T15:00:01.659Z,101326.06
2022-10-13T15:05:07.579Z,101320.88
2022-10-13T15:10:10.577Z,101316.50
2022-10-13T15:15:13.754Z,101319.16
2022-10-13T15:20:17.974Z,101321.66
2022-10-13T15:25:20.668Z,101321.47
2022-10-13T15:30:23.415Z,101315.00
2022-10-13T15:35:30.590Z,101318.25
2022-10-13T15:40:33.607Z,101318.72
2022-10-13T15:45:36.850Z,101321.91
2022-10-13T15:50:41.439Z,101316.28
2022-10-13T15:55:44.202Z,101315.88
2022-10-13T16:00:47.037Z,101311.81
2022-10-13T16:05:51.182Z,101314.94
2022-10-13T16:10:53.948Z,101308.16
2022-10-13T16:16:00.567Z,101303.16
2022-10-13T16:21:13.336Z,101306.06
2022-10-13T16:26:20.272Z,101309.81
2022-10-13T16:31:23.553Z,101305.84
2022-10-13T16:36:27.750Z,101300.91
2022-10-13T16:41:30.543Z,101298.69
2022-10-13T16:46:34.191Z,101303.41
2022-10-13T16:51:38.606Z,101307.28
2022-10-13T16:56:41.430Z,101300.72
2022-10-13T17:01:45.181Z,101295.28
2022-10-13T17:06:49.353Z,101302.19
2022-10-13T17:11:52.067Z,101305.44
2022-10-13T17:16:57.710Z,101296.44
2022-10-13T17:22:02.552Z,101299.94
2022-10-13T17:27:05.430Z,101300.69
2022-10-13T17:32:08.219Z,101299.63
2022-10-13T17:37:12.463Z,101299.63
2022-10-13T17:42:15.493Z,101295.25
2022-10-13T17:47:18.613Z,101302.44
2022-10-13T17:52:22.900Z,101309.66
2022-10-13T17:57:25.692Z,101307.19
2022-10-13T18:02:28.529Z,101307.34
2022-10-13T18:07:32.742Z,101305.59
2022-10-13T18:12:35.570Z,101299.25
2022-10-13T18:17:38.351Z,101296.50
2022-10-13T18:22:42.453Z,101299.94
2022-10-13T18:27:45.188Z,101290.13
2022-10-13T18:32:47.939Z,101283.84
2022-10-13T18:37:52.855Z,101295.34
2022-10-13T18:42:56.207Z,101292.91
2022-10-13T18:47:58.909Z,101297.50
2022-10-13T18:53:03.069Z,101294.88
2022-10-13T18:58:05.789Z,101297.38
2022-10-13T19:03:08.507Z,101294.81
2022-10-13T19:08:12.622Z,101291.34
2022-10-13T19:13:15.391Z,101289.56
2022-10-13T19:18:18.115Z,101280.81
2022-10-13T19:23:22.495Z,101279.81
2022-10-13T19:28:25.603Z,101285.03
2022-10-13T19:33:28.367Z,101286.72
2022-10-13T19:38:32.499Z,101283.22
2022-10-13T19:43:35.495Z,101282.19
2022-10-13T19:48:38.302Z,101284.69
2022-10-13T19:53:42.799Z,101275.91
2022-10-13T19:58:45.617Z,101286.59
2022-10-13T20:03:48.730Z,101283.84
2022-10-13T20:08:52.824Z,101283.75
2022-10-13T20:13:55.539Z,101284.63
2022-10-13T20:19:00.767Z,101282.72
2022-10-13T20:24:04.973Z,101287.03
2022-10-13T20:29:07.794Z,101291.41
2022-10-13T20:34:11.432Z,101285.97
2022-10-13T20:39:15.606Z,101282.19
2022-10-13T20:44:18.335Z,101286.31
2022-10-13T20:49:21.033Z,101286.16
2022-10-13T20:54:25.110Z,101276.47
2022-10-13T20:59:28.025Z,101284.00
2022-10-13T21:04:31.065Z,101283.94
2022-10-13T21:09:35.446Z,101275.09
2022-10-13T21:14:38.203Z,101289.91
2022-10-13T21:19:40.897Z,101291.41
2022-10-13T21:24:45.022Z,101289.50
2022-10-13T21:29:47.719Z,101285.75
2022-10-13T21:34:50.515Z,101288.25
2022-10-13T21:39:54.812Z,101287.16
2022-10-13T21:44:57.582Z,101284.22
2022-10-13T21:50:00.684Z,101283.91
2022-10-13T21:55:05.259Z,101280.06
2022-10-13T22:00:10.048Z,101283.28
2022-10-13T22:05:12.900Z,101293.53
2022-10-13T22:10:17.466Z,101284.53
2022-10-13T22:15:20.195Z,101279.03
2022-10-13T22:20:22.880Z,101278.00
2022-10-13T22:25:26.981Z,101277.81
2022-10-13T22:30:29.814Z,101273.13
2022-10-13T22:35:35.394Z,101277.50
2022-10-13T22:40:39.476Z,101274.63
2022-10-13T22:45:50.841Z,101268.44
2022-10-13T22:50:53.553Z,101270.16
2022-10-13T22:55:57.614Z,101267.44
2022-10-13T23:01:06.092Z,101267.44
2022-10-13T23:06:13.499Z,101270.06
2022-10-13T23:11:18.630Z,101259.22
2022-10-13T23:16:23.233Z,101262.44
2022-10-13T23:21:29.246Z,101265.00
2022-10-13T23:26:34.438Z,101267.63
2022-10-13T23:31:37.171Z,101269.47
2022-10-13T23:36:39.959Z,101260.78
2022-10-13T23:41:44.238Z,101261.63
2022-10-13T23:46:47.022Z,101262.34
2022-10-13T23:51:49.770Z,101256.94
2022-10-13T23:56:53.848Z,101255.91
